Airport ID:KCCB
Update Time (UTC):22/09/2017 08:10
Wind Speed (Knots):4
Wind Direction (Magnetic):330
Temperature (°C):12.9
Dew Point (°C):10
Humidity (%):82.9
Altimeter (inHg):29.85
Density Altitude (Feet):
Visibility (Miles):10
Clouds (Hundreds of feet):BKN027 BKN034 BKN041
Present Weather:
METAR:METAR KCCB 220805Z AUTO 34003KT 10SM BKN027 BKN034 13/10 A2985 RMK AO2

The data displayed is for advisory purposes only and is not to be used for flight planning or operations.

This page is not automatically refreshed. Reload the page to see current data.